Terminal Aerodrome Forecast
Issued by NWS Denver/Boulder, CO

Home | Current Version | Previous Version | Text Only | Print | Product List | Glossary On
Versions: 1 2 3 4 5 6 7 8 9 10 11 12 13 14 15 16 17 18 19 20 21 22 23 24 25 26 27 28 29 30 31 32 33 34 35 36 37 38 39 40 41 42 43 44 45 46 47 48 49 50
000
FTUS45 KBOU 211514 AAA
TAFDEN
TAF AMD
KDEN 211514Z 2115/2218 27006KT P6SM FEW150 SCT220
     FM211600 33007KT P6SM FEW150 SCT220
     FM211700 02010KT P6SM FEW100 SCT220
     FM212000 03013KT P6SM SCT100 SCT220
     FM220200 29006KT P6SM SCT090 SCT120 BKN200
     FM220500 25006KT P6SM SCT100 SCT200
     FM220800 33006KT P6SM FEW020 SCT200
     FM221200 03006KT P6SM SCT008 BKN020
     FM221600 12005KT P6SM FEW020 SCT200=

USA.gov is the U.S. government's official web portal to all federal, state and local government web resources and services.